Time;durP1;ratioP1;P1;durP2;ratioP2;P2;SDS_P1;SDS_P2;PMS_P1;PMS_P2;Temp;Humidity;BMP_temperature;BMP_pressure;BME280_temperature;BME280_humidity;BME280_pressure;Samples;Min_cycle;Max_cycle;Signal;HPM_P1;HPM_P2
2023/12/25 00:01:50;;;;;;;1.80;0.80;;;9.70;17.80;;;;;;5000982;28;20188;-71
2023/12/25 00:04:15;;;;;;;1.97;0.80;;;9.70;17.70;;;;;;4997549;28;20955;-70
2023/12/25 00:06:41;;;;;;;1.90;0.90;;;9.60;17.50;;;;;;5001235;28;20420;-70
2023/12/25 00:09:06;;;;;;;5.20;0.80;;;9.60;17.70;;;;;;4998939;28;20183;-72
2023/12/25 00:11:32;;;;;;;1.70;0.70;;;9.50;17.90;;;;;;5000636;28;20204;-71
2023/12/25 00:14:00;;;;;;;1.67;0.77;;;9.40;17.90;;;;;;5000881;28;20216;-70
2023/12/25 00:16:26;;;;;;;2.50;1.00;;;9.40;18.70;;;;;;5001211;28;20266;-70
2023/12/25 00:18:55;;;;;;;1.97;0.80;;;9.20;18.60;;;;;;5001681;28;20418;-70
2023/12/25 00:21:21;;;;;;;2.00;0.80;;;9.20;18.90;;;;;;4998710;28;20187;-70
2023/12/25 00:23:47;;;;;;;3.03;1.13;;;9.30;18.30;;;;;;4996043;28;20943;-70
2023/12/25 00:26:12;;;;;;;2.90;1.20;;;9.20;18.40;;;;;;5000590;28;20477;-70
2023/12/25 00:28:38;;;;;;;2.97;1.07;;;9.20;18.60;;;;;;4997919;28;20187;-71
2023/12/25 00:31:03;;;;;;;3.40;1.03;;;9.10;18.50;;;;;;5000832;28;20218;-71
2023/12/25 00:33:32;;;;;;;2.10;0.90;;;9.10;18.50;;;;;;4998851;28;20188;-71
2023/12/25 00:35:57;;;;;;;2.30;1.30;;;9.20;18.00;;;;;;4998532;28;20290;-70
2023/12/25 00:38:23;;;;;;;2.50;1.17;;;9.10;18.00;;;;;;4998476;28;20423;-71
2023/12/25 00:40:48;;;;;;;1.90;0.90;;;9.10;17.60;;;;;;5002494;28;20515;-71
2023/12/25 00:43:16;;;;;;;3.27;0.93;;;9.10;17.20;;;;;;5004161;28;20812;-71
2023/12/25 00:45:41;;;;;;;2.17;0.93;;;9.10;17.20;;;;;;5001939;28;20250;-70
2023/12/25 00:48:10;;;;;;;2.57;1.30;;;;;;;;;;5002893;28;20419;-71
2023/12/25 00:50:36;;;;;;;2.87;0.87;;;9.30;15.60;;;;;;4998644;28;20208;-71
2023/12/25 00:53:02;;;;;;;2.27;1.00;;;9.40;15.90;;;;;;4999554;28;20870;-71
2023/12/25 00:55:31;;;;;;;2.07;1.00;;;9.30;15.90;;;;;;4999566;28;20211;-72
2023/12/25 00:57:57;;;;;;;2.00;0.90;;;9.30;15.60;;;;;;5013566;28;20466;-70
2023/12/25 01:00:22;;;;;;;1.90;1.07;;;9.30;15.10;;;;;;4997886;28;20415;-70
2023/12/25 01:02:48;;;;;;;1.70;0.80;;;9.30;15.00;;;;;;4998925;28;20537;-70
2023/12/25 01:05:14;;;;;;;3.50;1.00;;;9.40;14.40;;;;;;5022860;23;20270;-71
2023/12/25 01:07:40;;;;;;;1.80;0.80;;;9.40;14.40;;;;;;4998565;28;20188;-72
2023/12/25 01:10:06;;;;;;;1.60;0.63;;;9.40;14.40;;;;;;4997076;28;20258;-72
2023/12/25 01:12:32;;;;;;;1.60;0.70;;;9.40;14.40;;;;;;5007065;28;20850;-72
2023/12/25 01:15:00;;;;;;;5.00;1.07;;;9.30;14.40;;;;;;4995595;28;20527;-72
2023/12/25 01:17:26;;;;;;;1.70;0.93;;;9.50;13.50;;;;;;4986747;28;20203;-72
2023/12/25 01:19:52;;;;;;;2.33;0.97;;;9.50;13.40;;;;;;4987738;28;20416;-72
2023/12/25 01:22:18;;;;;;;2.00;1.10;;;9.60;12.50;;;;;;4988337;28;20267;-72
2023/12/25 01:24:44;;;;;;;1.80;0.77;;;9.70;12.10;;;;;;4987160;28;20219;-72
2023/12/25 01:27:09;;;;;;;2.87;1.40;;;9.70;11.80;;;;;;4987743;28;20510;-73
2023/12/25 01:29:35;;;;;;;3.40;1.63;;;9.60;12.10;;;;;;4987844;28;20684;-72
2023/12/25 01:32:00;;;;;;;1.80;0.93;;;9.50;11.90;;;;;;4988073;28;20183;-72
2023/12/25 01:34:26;;;;;;;1.90;0.83;;;9.60;11.00;;;;;;4987867;28;20630;-74
2023/12/25 01:36:51;;;;;;;2.00;1.10;;;9.60;11.50;;;;;;4987806;28;20872;-74
2023/12/25 01:39:17;;;;;;;1.70;0.90;;;9.50;11.40;;;;;;4987887;28;20683;-72
2023/12/25 01:41:42;;;;;;;2.27;1.30;;;9.50;10.80;;;;;;4988194;28;20208;-72
2023/12/25 01:44:08;;;;;;;2.20;1.00;;;9.50;10.90;;;;;;4987549;28;20209;-72
2023/12/25 01:46:34;;;;;;;1.97;1.30;;;9.50;10.30;;;;;;4987542;28;20183;-73
2023/12/25 01:49:00;;;;;;;1.63;0.90;;;9.60;10.20;;;;;;4988209;28;20250;-73
2023/12/25 01:51:25;;;;;;;1.80;0.97;;;9.50;10.10;;;;;;4986878;28;20491;-71
2023/12/25 01:53:53;;;;;;;1.60;0.90;;;9.50;9.80;;;;;;4986972;28;20746;-72
2023/12/25 01:56:19;;;;;;;9.13;1.00;;;9.60;9.60;;;;;;4987032;28;20199;-73
2023/12/25 01:58:44;;;;;;;2.23;1.27;;;9.50;10.10;;;;;;4987734;28;20786;-72
2023/12/25 02:01:10;;;;;;;1.60;0.90;;;9.50;9.40;;;;;;4986999;28;20431;-73
2023/12/25 02:03:36;;;;;;;1.83;0.93;;;9.50;9.40;;;;;;4987010;28;20196;-70
2023/12/25 02:06:02;;;;;;;2.20;1.13;;;9.40;10.10;;;;;;4987025;28;20196;-70
2023/12/25 02:08:31;;;;;;;1.90;1.00;;;9.40;10.00;;;;;;4987403;28;20335;-70
2023/12/25 02:11:02;;;;;;;2.10;1.10;;;9.30;9.90;;;;;;4986732;28;21506;-70
2023/12/25 02:13:28;;;;;;;2.10;1.30;;;9.30;9.40;;;;;;4988656;28;20415;-70
2023/12/25 02:15:54;;;;;;;2.23;1.20;;;9.20;9.70;;;;;;4987237;28;20463;-71
2023/12/25 02:18:20;;;;;;;1.80;1.03;;;9.20;9.80;;;;;;4987035;28;20488;-70
2023/12/25 02:20:46;;;;;;;2.37;1.63;;;9.20;9.80;;;;;;4986513;28;20189;-71
2023/12/25 02:23:15;;;;;;;2.03;0.90;;;9.20;9.30;;;;;;4988392;28;20820;-70
2023/12/25 02:26:07;;;;;;;2.50;1.43;;;9.20;9.60;;;;;;4990638;28;21572;-70
2023/12/25 02:28:33;;;;;;;1.90;1.20;;;9.10;9.50;;;;;;4988684;28;20794;-70
2023/12/25 02:30:58;;;;;;;2.30;1.37;;;9.10;9.40;;;;;;4989483;28;20466;-72
2023/12/25 02:33:24;;;;;;;2.37;1.43;;;9.00;9.30;;;;;;4991172;28;20671;-70
2023/12/25 02:35:49;;;;;;;1.73;1.10;;;9.10;8.60;;;;;;4989974;28;20201;-70
2023/12/25 02:38:15;;;;;;;2.83;1.30;;;9.10;9.10;;;;;;4990534;28;20188;-71
2023/12/25 02:40:41;;;;;;;2.00;1.10;;;9.20;8.60;;;;;;4990284;28;20248;-71
2023/12/25 02:43:07;;;;;;;1.63;1.10;;;9.20;8.30;;;;;;4991134;28;20673;-70
2023/12/25 02:45:33;;;;;;;2.00;1.07;;;9.30;8.20;;;;;;4989904;28;20196;-70
2023/12/25 02:47:59;;;;;;;2.00;1.10;;;9.30;8.20;;;;;;4990411;28;20925;-71
2023/12/25 02:50:24;;;;;;;3.83;1.40;;;9.20;8.10;;;;;;4989868;28;20211;-71
2023/12/25 02:52:50;;;;;;;2.00;1.17;;;9.20;8.20;;;;;;4990637;28;20202;-70
2023/12/25 02:55:15;;;;;;;1.90;1.10;;;9.20;8.00;;;;;;4989977;28;20196;-70
2023/12/25 02:57:41;;;;;;;2.63;1.43;;;9.10;7.70;;;;;;4989507;28;20568;-71
2023/12/25 03:00:07;;;;;;;1.53;0.80;;;9.10;8.00;;;;;;4990016;28;20181;-71
2023/12/25 03:02:33;;;;;;;1.90;1.20;;;9.10;8.30;;;;;;4989615;28;20183;-71
2023/12/25 03:04:58;;;;;;;2.50;1.30;;;9.10;7.70;;;;;;4989771;28;20455;-71
2023/12/25 03:07:24;;;;;;;1.67;1.10;;;9.00;8.10;;;;;;4989993;28;20227;-72
2023/12/25 03:09:49;;;;;;;1.70;1.10;;;9.00;8.10;;;;;;4990427;28;20593;-71
2023/12/25 03:12:15;;;;;;;2.00;1.20;;;9.00;7.50;;;;;;4989876;28;20267;-72
2023/12/25 03:14:41;;;;;;;2.10;1.40;;;9.00;7.60;;;;;;4990093;28;20599;-71
2023/12/25 03:17:06;;;;;;;1.90;1.30;;;9.00;8.10;;;;;;4989099;28;20176;-71
2023/12/25 03:19:32;;;;;;;1.93;1.13;;;9.00;7.50;;;;;;4988264;28;20420;-71
2023/12/25 03:21:57;;;;;;;1.90;1.40;;;9.00;7.40;;;;;;4989875;28;20234;-71
2023/12/25 03:24:23;;;;;;;2.47;1.23;;;8.90;7.20;;;;;;4988604;28;20211;-71
2023/12/25 03:26:49;;;;;;;2.03;1.37;;;8.90;7.40;;;;;;4988566;28;20183;-71
2023/12/25 03:29:15;;;;;;;1.80;1.30;;;8.90;7.40;;;;;;4989775;28;20663;-72
2023/12/25 03:31:40;;;;;;;2.33;1.50;;;8.70;7.10;;;;;;4989670;28;20489;-71
2023/12/25 03:34:06;;;;;;;1.80;1.20;;;8.80;7.40;;;;;;4989748;28;20247;-70
2023/12/25 03:36:32;;;;;;;2.27;1.30;;;8.80;7.40;;;;;;4990519;28;20200;-73
2023/12/25 03:38:57;;;;;;;2.37;1.47;;;8.80;6.80;;;;;;4989347;28;20191;-72
2023/12/25 03:41:23;;;;;;;1.60;1.10;;;9.00;6.40;;;;;;4989803;28;20188;-70
2023/12/25 03:43:48;;;;;;;3.67;1.37;;;9.10;6.40;;;;;;4988118;28;20180;-71
2023/12/25 03:46:14;;;;;;;1.80;1.40;;;9.10;6.30;;;;;;4990228;28;20185;-71
2023/12/25 03:48:39;;;;;;;2.47;1.60;;;9.20;5.80;;;;;;4989574;28;20643;-71
2023/12/25 03:51:05;;;;;;;1.70;1.20;;;9.10;5.90;;;;;;4988800;28;20219;-71
2023/12/25 03:53:31;;;;;;;3.20;1.30;;;9.10;5.40;;;;;;4989402;28;20264;-71
2023/12/25 03:56:02;;;;;;;2.33;1.60;;;9.10;6.40;;;;;;4989468;28;20328;-70
2023/12/25 03:58:28;;;;;;;1.70;1.10;;;8.90;6.50;;;;;;4989017;28;20177;-72
2023/12/25 04:00:53;;;;;;;2.13;1.40;;;8.80;6.40;;;;;;4989126;28;20434;-70
2023/12/25 04:03:19;;;;;;;1.80;1.40;;;8.70;6.60;;;;;;4989304;28;20648;-70
2023/12/25 04:05:44;;;;;;;1.67;1.03;;;8.60;6.80;;;;;;4987256;28;20228;-70
2023/12/25 04:08:10;;;;;;;1.90;1.20;;;8.60;6.00;;;;;;4989031;28;20204;-70
2023/12/25 04:10:35;;;;;;;2.43;1.47;;;8.70;5.80;;;;;;4988881;28;20219;-69
2023/12/25 04:13:01;;;;;;;1.80;1.30;;;8.70;5.80;;;;;;4989283;28;20554;-69
2023/12/25 04:15:26;;;;;;;3.70;1.50;;;8.70;5.20;;;;;;4988779;28;20203;-70
2023/12/25 04:17:52;;;;;;;1.90;1.20;;;8.70;5.20;;;;;;4988725;28;20196;-70
2023/12/25 04:20:17;;;;;;;1.87;1.30;;;8.70;5.70;;;;;;4988510;28;20510;-70
2023/12/25 04:22:43;;;;;;;2.70;1.20;;;8.60;5.90;;;;;;4989244;28;20204;-71
2023/12/25 04:25:08;;;;;;;1.80;1.30;;;8.60;5.00;;;;;;4988605;28;20207;-71
2023/12/25 04:27:34;;;;;;;1.73;1.40;;;8.80;5.20;;;;;;4988687;28;20195;-72
2023/12/25 04:29:59;;;;;;;3.23;1.50;;;8.80;4.70;;;;;;4988448;28;20745;-71
2023/12/25 04:32:25;;;;;;;3.40;1.57;;;8.80;4.60;;;;;;4987333;28;20188;-70
2023/12/25 04:34:50;;;;;;;2.83;1.70;;;8.90;4.00;;;;;;4988469;28;20204;-71
2023/12/25 04:37:16;;;;;;;2.00;1.40;;;8.90;4.40;;;;;;4988639;28;20199;-71
2023/12/25 04:39:41;;;;;;;2.00;1.40;;;8.90;3.80;;;;;;4988707;28;20176;-70
2023/12/25 04:42:07;;;;;;;1.80;1.33;;;8.90;3.40;;;;;;4988615;28;20200;-71
2023/12/25 04:44:33;;;;;;;1.60;1.20;;;8.90;3.60;;;;;;4988032;28;20200;-71
2023/12/25 04:46:58;;;;;;;2.10;1.90;;;8.80;3.70;;;;;;4987914;28;20632;-70
2023/12/25 04:49:24;;;;;;;2.03;1.53;;;8.80;3.60;;;;;;4988719;28;20479;-70
2023/12/25 04:51:49;;;;;;;1.97;1.37;;;8.90;3.00;;;;;;4987635;28;20224;-71
2023/12/25 04:54:15;;;;;;;1.80;1.53;;;8.90;2.80;;;;;;4988291;28;20259;-71
2023/12/25 04:56:41;;;;;;;1.90;1.50;;;8.90;2.90;;;;;;4987977;28;20184;-71
2023/12/25 04:59:06;;;;;;;2.23;1.43;;;8.80;3.10;;;;;;4988165;28;20177;-71
2023/12/25 05:01:32;;;;;;;2.10;1.33;;;8.90;2.50;;;;;;4988294;28;20212;-70
2023/12/25 05:03:57;;;;;;;2.63;1.40;;;8.80;2.80;;;;;;4988687;28;20287;-70
2023/12/25 05:06:23;;;;;;;2.07;1.40;;;8.90;1.80;;;;;;4987909;28;20215;-71
2023/12/25 05:08:48;;;;;;;3.70;1.50;;;8.90;2.20;;;;;;4986685;28;20184;-71
2023/12/25 05:11:14;;;;;;;2.10;1.43;;;8.90;1.50;;;;;;4987819;28;20442;-71
2023/12/25 05:13:39;;;;;;;2.27;1.40;;;8.90;1.90;;;;;;4986557;28;20199;-70
2023/12/25 05:16:05;;;;;;;2.00;1.20;;;8.80;1.40;;;;;;4986956;28;20246;-71
2023/12/25 05:18:30;;;;;;;2.00;1.40;;;8.80;1.50;;;;;;4988146;28;20664;-70
2023/12/25 05:20:56;;;;;;;2.20;1.63;;;8.80;2.10;;;;;;4987754;28;20192;-71
2023/12/25 05:23:21;;;;;;;4.23;1.50;;;8.80;1.90;;;;;;4986781;28;20534;-71
2023/12/25 05:25:47;;;;;;;2.37;1.43;;;8.80;1.10;;;;;;4988341;28;20617;-69
2023/12/25 05:28:12;;;;;;;1.80;1.40;;;8.90;1.00;;;;;;4987877;28;20188;-70
2023/12/25 05:30:38;;;;;;;1.97;1.30;;;8.90;1.60;;;;;;4987823;28;20576;-72
2023/12/25 05:33:04;;;;;;;2.73;1.43;;;8.80;1.50;;;;;;4988422;28;20537;-70
2023/12/25 05:35:29;;;;;;;2.10;1.70;;;8.80;1.40;;;;;;4988319;28;20573;-71
2023/12/25 05:37:55;;;;;;;2.03;1.53;;;8.70;2.00;;;;;;4988008;28;20279;-68
2023/12/25 05:40:22;;;;;;;1.70;1.30;;;8.70;1.20;;;;;;4987653;28;20192;-70
2023/12/25 05:42:47;;;;;;;1.80;1.20;;;8.70;1.70;;;;;;4986908;28;20653;-70
2023/12/25 05:45:13;;;;;;;2.00;1.40;;;8.60;3.00;;;;;;4987913;28;20509;-71
2023/12/25 05:47:39;;;;;;;1.70;1.40;;;8.60;3.30;;;;;;4986816;28;20212;-71
2023/12/25 05:50:07;;;;;;;4.03;1.60;;;8.60;3.20;;;;;;4987358;28;20581;-71
2023/12/25 05:52:33;;;;;;;2.07;1.20;;;8.60;2.90;;;;;;4986618;28;20412;-71
2023/12/25 05:55:00;;;;;;;1.90;1.30;;;8.60;3.30;;;;;;4987542;28;20795;-71
2023/12/25 05:57:26;;;;;;;2.50;1.63;;;8.50;3.10;;;;;;4986546;28;20187;-71
2023/12/25 05:59:51;;;;;;;2.00;1.53;;;8.50;3.90;;;;;;4989120;28;20430;-71
2023/12/25 06:02:17;;;;;;;1.80;1.40;;;8.60;2.30;;;;;;4992018;28;20522;-71
2023/12/25 06:04:42;;;;;;;2.47;1.70;;;8.60;2.80;;;;;;4991107;28;20729;-71
2023/12/25 06:07:09;;;;;;;2.70;1.33;;;8.50;2.60;;;;;;4991518;28;20183;-71
2023/12/25 06:09:35;;;;;;;1.90;1.40;;;8.50;3.20;;;;;;4990660;28;20187;-71
2023/12/25 06:12:00;;;;;;;2.20;1.67;;;8.40;2.60;;;;;;4991136;28;20466;-71
2023/12/25 06:14:27;;;;;;;2.90;1.53;;;8.40;2.70;;;;;;4991519;28;20313;-71
2023/12/25 06:16:52;;;;;;;1.83;1.50;;;8.30;2.00;;;;;;4989896;28;20226;-71
2023/12/25 06:19:18;;;;;;;2.00;1.50;;;8.30;2.10;;;;;;4990970;28;20427;-71
2023/12/25 06:21:43;;;;;;;2.10;1.60;;;8.20;2.00;;;;;;4990971;28;20196;-71
2023/12/25 06:24:09;;;;;;;2.00;1.60;;;8.20;2.00;;;;;;4989862;28;20267;-71
2023/12/25 06:26:34;;;;;;;1.60;1.30;;;8.20;3.30;;;;;;4990870;28;20624;-72
2023/12/25 06:29:00;;;;;;;1.70;1.30;;;8.20;2.30;;;;;;4990969;28;20203;-71
2023/12/25 06:31:25;;;;;;;1.67;1.33;;;8.10;2.80;;;;;;4991178;28;20211;-71
2023/12/25 06:33:51;;;;;;;2.07;1.20;;;8.10;2.80;;;;;;4991496;28;20278;-70
2023/12/25 06:36:17;;;;;;;3.80;1.43;;;8.10;2.50;;;;;;4989774;28;20214;-71
2023/12/25 06:38:42;;;;;;;1.90;1.30;;;8.10;2.50;;;;;;4991757;28;20191;-71
2023/12/25 06:41:10;;;;;;;3.00;1.83;;;8.10;2.40;;;;;;4990678;28;20192;-71
2023/12/25 06:43:36;;;;;;;2.87;1.70;;;8.20;1.80;;;;;;4990407;28;20188;-71
2023/12/25 06:46:02;;;;;;;2.10;1.63;;;8.30;1.80;;;;;;4991084;28;20423;-71
2023/12/25 06:48:28;;;;;;;1.93;1.73;;;8.40;1.80;;;;;;4990798;28;20180;-71
2023/12/25 06:50:54;;;;;;;2.07;1.63;;;8.30;2.40;;;;;;4989201;28;20215;-71
2023/12/25 06:53:19;;;;;;;2.20;1.30;;;8.20;1.70;;;;;;4990255;28;20434;-71
2023/12/25 06:55:45;;;;;;;2.43;1.63;;;8.30;2.00;;;;;;4990688;28;20622;-71
2023/12/25 06:58:10;;;;;;;1.80;1.60;;;8.30;1.80;;;;;;4989081;28;20184;-71
2023/12/25 07:00:36;;;;;;;2.13;1.90;;;8.30;1.50;;;;;;4990026;28;20183;-71
2023/12/25 07:03:01;;;;;;;1.90;1.70;;;8.30;1.60;;;;;;4990421;28;20199;-71
2023/12/25 07:05:27;;;;;;;4.10;1.70;;;8.50;1.70;;;;;;5027102;23;20603;-72
2023/12/25 07:07:52;;;;;;;2.03;1.80;;;8.40;1.40;;;;;;5009933;28;20214;-72
2023/12/25 07:10:18;;;;;;;1.53;1.17;;;8.50;1.10;;;;;;5009097;28;20223;-73
2023/12/25 07:12:44;;;;;;;2.70;1.83;;;8.40;1.30;;;;;;5009056;28;20187;-72
2023/12/25 07:15:09;;;;;;;2.80;2.00;;;8.30;1.60;;;;;;4998601;28;20200;-73
2023/12/25 07:17:35;;;;;;;2.17;1.63;;;8.30;1.30;;;;;;4989597;28;20264;-73
2023/12/25 07:20:01;;;;;;;2.03;1.83;;;8.20;1.20;;;;;;4990032;28;20187;-72
2023/12/25 07:22:29;;;;;;;1.80;1.50;;;8.20;1.00;;;;;;4990879;28;20226;-72
2023/12/25 07:24:54;;;;;;;2.20;1.87;;;8.30;1.00;;;;;;5004554;28;20451;-72
2023/12/25 07:27:20;;;;;;;2.03;1.80;;;8.30;1.00;;;;;;4990200;28;21073;-71
2023/12/25 07:29:45;;;;;;;2.00;1.73;;;8.30;1.30;;;;;;4989654;28;20263;-73
2023/12/25 07:32:11;;;;;;;2.47;2.20;;;8.30;1.00;;;;;;4990925;28;20179;-71
2023/12/25 07:34:37;;;;;;;2.30;1.80;;;8.20;1.00;;;;;;4990894;28;20215;-70
2023/12/25 07:37:03;;;;;;;2.10;1.90;;;8.30;1.00;;;;;;4990097;28;20515;-70
2023/12/25 07:39:28;;;;;;;2.50;1.70;;;8.40;1.00;;;;;;4990223;28;20181;-71
2023/12/25 07:41:55;;;;;;;1.70;1.47;;;8.40;1.00;;;;;;4990312;28;20538;-70
2023/12/25 07:44:21;;;;;;;2.20;1.77;;;8.40;1.00;;;;;;4989920;28;20573;-69
2023/12/25 07:46:47;;;;;;;2.27;1.77;;;8.50;1.00;;;;;;4989875;28;20513;-69
2023/12/25 07:49:12;;;;;;;2.40;2.20;;;8.60;1.00;;;;;;4989578;28;20872;-72
2023/12/25 07:51:38;;;;;;;1.70;1.50;;;8.50;1.00;;;;;;4990452;28;20227;-69
2023/12/25 07:54:04;;;;;;;2.47;2.27;;;8.50;1.00;;;;;;4989141;28;20184;-71
2023/12/25 07:56:30;;;;;;;3.93;2.37;;;8.60;1.00;;;;;;4989733;28;20203;-72
2023/12/25 07:58:56;;;;;;;2.90;2.10;;;8.80;1.00;;;;;;4989396;28;20535;-70
2023/12/25 08:01:22;;;;;;;2.40;1.97;;;9.00;1.00;;;;;;4989996;28;20531;-70
2023/12/25 08:03:50;;;;;;;2.90;2.03;;;9.10;1.00;;;;;;4989423;28;20509;-71
2023/12/25 08:06:16;;;;;;;2.40;2.20;;;9.10;1.00;;;;;;4989584;28;20431;-70
2023/12/25 08:08:41;;;;;;;2.53;2.20;;;9.20;1.00;;;;;;4982413;28;21152;-71
2023/12/25 08:11:07;;;;;;;2.20;2.00;;;9.30;1.00;;;;;;4985021;28;20208;-71
2023/12/25 08:13:33;;;;;;;1.90;1.70;;;9.30;1.00;;;;;;4983320;28;20192;-71
2023/12/25 08:15:58;;;;;;;2.10;1.90;;;9.30;1.00;;;;;;4984085;28;20208;-71
2023/12/25 08:18:24;;;;;;;2.20;1.97;;;9.30;1.00;;;;;;4984503;28;20185;-70
2023/12/25 08:20:49;;;;;;;2.30;1.90;;;9.30;1.00;;;;;;4984568;28;20191;-70
2023/12/25 08:23:15;;;;;;;2.10;1.90;;;9.30;1.00;;;;;;4982431;28;20969;-70
2023/12/25 08:25:41;;;;;;;1.80;1.70;;;9.30;1.00;;;;;;4983793;28;20216;-70
2023/12/25 08:28:06;;;;;;;2.60;2.40;;;9.30;1.00;;;;;;4984943;28;20200;-71
2023/12/25 08:30:32;;;;;;;2.20;2.00;;;9.40;1.00;;;;;;4983413;28;20475;-71
2023/12/25 08:32:57;;;;;;;3.53;3.23;;;9.50;1.00;;;;;;4986958;28;20184;-70
2023/12/25 08:35:23;;;;;;;2.40;2.07;;;9.50;1.00;;;;;;4987593;28;20212;-71
2023/12/25 08:37:49;;;;;;;2.13;1.93;;;9.50;1.00;;;;;;4989005;28;20199;-71
2023/12/25 08:40:14;;;;;;;2.30;1.80;;;9.50;1.00;;;;;;4986694;28;20207;-70
2023/12/25 08:42:40;;;;;;;2.60;2.33;;;9.50;1.00;;;;;;4989356;28;20204;-71
2023/12/25 08:45:07;;;;;;;2.93;2.40;;;9.60;1.00;;;;;;4985536;28;20255;-71
2023/12/25 08:47:33;;;;;;;2.77;2.27;;;9.70;1.00;;;;;;4985894;28;20558;-71
2023/12/25 08:49:59;;;;;;;2.83;2.00;;;9.80;1.00;;;;;;4986166;28;20433;-71
2023/12/25 08:52:25;;;;;;;2.10;1.90;;;10.00;1.00;;;;;;4987931;28;20482;-71
2023/12/25 08:54:50;;;;;;;2.10;1.90;;;10.00;1.00;;;;;;4988473;28;20937;-73
2023/12/25 08:57:16;;;;;;;2.30;2.00;;;10.00;1.00;;;;;;4988157;28;20184;-70
2023/12/25 08:59:42;;;;;;;2.57;2.20;;;10.10;1.00;;;;;;4987395;28;20224;-72
2023/12/25 09:02:08;;;;;;;2.20;2.00;;;10.20;1.00;;;;;;4989207;28;20188;-71
2023/12/25 09:04:33;;;;;;;2.30;2.10;;;10.30;1.00;;;;;;4987283;28;20478;-71
2023/12/25 09:06:59;;;;;;;2.40;2.20;;;10.30;1.00;;;;;;4984904;28;20235;-70
2023/12/25 09:09:25;;;;;;;2.00;1.90;;;10.50;1.00;;;;;;4986140;28;20262;-71
2023/12/25 09:11:51;;;;;;;2.60;2.40;;;10.60;1.00;;;;;;4988133;28;20221;-69
2023/12/25 09:14:17;;;;;;;2.77;2.07;;;10.60;1.00;;;;;;4987526;28;20942;-70
2023/12/25 09:16:42;;;;;;;2.70;2.50;;;10.80;1.00;;;;;;4987782;28;20232;-71
2023/12/25 09:19:08;;;;;;;2.23;2.03;;;10.80;1.00;;;;;;4988512;28;20184;-71
2023/12/25 09:21:38;;;;;;;2.57;2.37;;;11.00;1.00;;;;;;4988002;28;20185;-70
2023/12/25 09:24:03;;;;;;;3.03;2.40;;;11.00;1.00;;;;;;4987614;28;20197;-71
2023/12/25 09:26:29;;;;;;;1.93;1.83;;;10.80;1.00;;;;;;4987404;28;20806;-69
2023/12/25 09:28:54;;;;;;;2.57;2.30;;;10.90;1.00;;;;;;4983969;28;20191;-70
2023/12/25 09:31:20;;;;;;;2.33;2.13;;;10.90;1.00;;;;;;4982892;28;20279;-71
2023/12/25 09:33:46;;;;;;;2.33;2.10;;;11.00;1.00;;;;;;4983053;28;20181;-71
2023/12/25 09:36:11;;;;;;;2.50;2.30;;;10.90;1.00;;;;;;4981088;28;20583;-71
2023/12/25 09:38:37;;;;;;;3.10;2.80;;;10.80;1.00;;;;;;4983880;28;20216;-71
2023/12/25 09:41:14;;;;;;;2.47;2.20;;;11.00;1.00;;;;;;4982622;28;20338;-72
2023/12/25 09:43:43;;;;;;;4.23;2.40;;;10.80;1.00;;;;;;4981315;28;20215;-72
2023/12/25 09:46:12;;;;;;;3.23;2.20;;;10.90;1.00;;;;;;4980491;28;20443;-71
2023/12/25 09:48:41;;;;;;;2.40;2.20;;;10.80;1.00;;;;;;4982427;28;20438;-71
2023/12/25 09:51:08;;;;;;;2.80;2.50;;;10.70;1.00;;;;;;4982114;28;20471;-72
2023/12/25 09:53:34;;;;;;;3.00;2.30;;;10.70;1.00;;;;;;4983188;28;20783;-70
2023/12/25 09:56:03;;;;;;;3.07;2.03;;;10.60;1.00;;;;;;4984018;28;20545;-69
2023/12/25 09:58:29;;;;;;;2.63;1.90;;;10.70;1.00;;;;;;4983688;28;20188;-70
2023/12/25 10:00:55;;;;;;;3.30;2.43;;;10.70;1.10;;;;;;4983573;28;20490;-70
2023/12/25 10:03:21;;;;;;;2.60;2.40;;;10.70;1.00;;;;;;4983660;28;20428;-70
2023/12/25 10:05:47;;;;;;;2.30;1.90;;;10.80;1.20;;;;;;4984063;28;20750;-71
2023/12/25 10:08:12;;;;;;;3.63;2.27;;;10.80;1.60;;;;;;4982016;28;20566;-70
2023/12/25 10:10:38;;;;;;;4.00;2.13;;;11.00;1.60;;;;;;4983224;28;20222;-69
2023/12/25 10:13:04;;;;;;;3.40;2.40;;;11.00;1.40;;;;;;4986910;28;20224;-69
2023/12/25 10:15:30;;;;;;;2.27;2.07;;;;;;;;;;4987577;28;20205;-69
2023/12/25 10:18:06;;;;;;;4.10;3.00;;;;;;;;;;4987483;28;20481;-68
2023/12/25 10:20:32;;;;;;;3.70;2.57;;;;;;;;;;4985603;28;20467;-69
2023/12/25 10:22:58;;;;;;;3.43;2.63;;;;;;;;;;4987227;28;20474;-70
2023/12/25 10:25:28;;;;;;;3.57;2.57;;;;;;;;;;4985903;28;20443;-69
2023/12/25 10:27:54;;;;;;;2.93;2.37;;;;;;;;;;4987226;28;20487;-70
2023/12/25 10:30:21;;;;;;;2.63;2.00;;;;;;;;;;4986817;28;20466;-70
2023/12/25 10:32:48;;;;;;;2.40;2.07;;;;;;;;;;4987281;28;20482;-72
2023/12/25 10:35:18;;;;;;;2.90;2.20;;;;;;;;;;4986426;28;20436;-70
2023/12/25 10:37:47;;;;;;;2.00;1.80;;;10.70;2.10;;;;;;4985668;28;20938;-71
2023/12/25 10:40:23;;;;;;;3.90;2.23;;;;;;;;;;4987506;28;20798;-72
2023/12/25 10:42:49;;;;;;;2.87;2.37;;;;;;;;;;4985588;28;20434;-70
2023/12/25 10:45:21;;;;;;;2.33;1.80;;;;;;;;;;4989559;28;20443;-71
2023/12/25 10:47:48;;;;;;;2.60;2.00;;;;;;;;;;4990330;28;20474;-69
2023/12/25 10:50:15;;;;;;;2.60;2.17;;;;;;;;;;4990966;28;20467;-70
2023/12/25 10:52:42;;;;;;;3.03;2.60;;;;;;;;;;4990167;28;20420;-70
2023/12/25 10:55:08;;;;;;;1.90;1.60;;;;;;;;;;4990329;28;20506;-69
2023/12/25 10:57:35;;;;;;;2.10;1.80;;;;;;;;;;4987269;28;20430;-71
2023/12/25 11:00:04;;;;;;;3.63;2.10;;;;;;;;;;4989667;28;20415;-70
2023/12/25 11:02:33;;;;;;;2.80;1.77;;;;;;;;;;4990618;28;20990;-71
2023/12/25 11:05:00;;;;;;;4.93;2.00;;;;;;;;;;4989501;28;20484;-70
2023/12/25 11:07:26;;;;;;;2.50;2.30;;;;;;;;;;4990602;28;20516;-72
2023/12/25 11:09:52;;;;;;;2.30;1.50;;;;;;;;;;4990019;28;20518;-70
2023/12/25 11:12:18;;;;;;;1.97;1.30;;;;;;;;;;4989610;28;20572;-70
2023/12/25 11:14:45;;;;;;;2.20;1.70;;;;;;;;;;4989354;28;20812;-70
2023/12/25 11:17:11;;;;;;;3.70;1.93;;;;;;;;;;4989994;28;20442;-72
2023/12/25 11:19:37;;;;;;;2.20;1.70;;;;;;;;;;4989165;28;20531;-72
2023/12/25 11:22:23;;;;;;;2.73;2.10;;;;;;;;;;4989576;28;20424;-69
2023/12/25 11:24:49;;;;;;;3.10;2.03;;;;;;;;;;4989770;28;20445;-75
2023/12/25 11:27:17;;;;;;;2.87;1.80;;;;;;;;;;4988704;28;20415;-70
2023/12/25 11:29:43;;;;;;;3.33;2.20;;;;;;;;;;4989556;28;20502;-70
2023/12/25 11:32:09;;;;;;;2.97;2.10;;;;;;;;;;4989460;28;20577;-72
2023/12/25 11:34:39;;;;;;;3.30;1.70;;;;;;;;;;4989731;28;20529;-69
2023/12/25 11:37:17;;;;;;;3.40;1.77;;;;;;;;;;4989996;28;20430;-69
2023/12/25 11:39:48;;;;;;;2.23;1.67;;;;;;;;;;4989184;28;20424;-71
2023/12/25 11:42:14;;;;;;;1.73;1.43;;;;;;;;;;4989689;28;20420;-69
2023/12/25 11:44:41;;;;;;;1.70;1.27;;;;;;;;;;4990389;28;20443;-70
2023/12/25 11:47:07;;;;;;;2.40;2.00;;;;;;;;;;4989053;28;20431;-69
2023/12/25 11:49:33;;;;;;;2.57;1.50;;;;;;;;;;4987417;28;20778;-70
2023/12/25 11:51:59;;;;;;;2.10;1.50;;;;;;;;;;4989109;28;20864;-70
2023/12/25 11:54:29;;;;;;;4.70;1.90;;;;;;;;;;4989544;28;20482;-69
2023/12/25 11:56:57;;;;;;;3.37;2.40;;;;;;;;;;4989460;28;20416;-71
2023/12/25 11:59:23;;;;;;;2.67;1.77;;;;;;;;;;4988714;28;20750;-70
2023/12/25 12:01:49;;;;;;;2.10;1.53;;;;;;;;;;4989574;28;20425;-70
2023/12/25 12:04:17;;;;;;;2.80;1.70;;;;;;;;;;4988337;28;20960;-70
2023/12/25 12:06:43;;;;;;;3.27;1.53;;;;;;;;;;4988600;28;20428;-70
2023/12/25 12:09:09;;;;;;;4.83;1.73;;;;;;;;;;4988040;28;20427;-70
2023/12/25 12:11:35;;;;;;;4.00;2.00;;;;;;;;;;4989391;28;20822;-70
2023/12/25 12:14:02;;;;;;;3.00;1.77;;;;;;;;;;4988788;28;20423;-70
2023/12/25 12:16:28;;;;;;;3.23;1.70;;;;;;;;;;4988077;28;20769;-70
2023/12/25 12:18:54;;;;;;;3.17;2.10;;;;;;;;;;4988390;28;20764;-70
2023/12/25 12:21:20;;;;;;;3.20;1.73;;;;;;;;;;4989136;28;20460;-69
2023/12/25 12:23:47;;;;;;;1.90;1.50;;;;;;;;;;4988727;28;20415;-71
2023/12/25 12:26:15;;;;;;;2.47;1.53;;;;;;;;;;4987306;28;20766;-71
2023/12/25 12:28:42;;;;;;;3.00;2.10;;;;;;;;;;4989632;28;20514;-70
2023/12/25 12:31:08;;;;;;;3.57;2.00;;;;;;;;;;4988472;28;20475;-70
2023/12/25 12:33:34;;;;;;;1.80;1.30;;;;;;;;;;4987886;28;20421;-68
2023/12/25 12:36:02;;;;;;;2.03;1.27;;;;;;;;;;4988181;28;20442;-70
2023/12/25 12:38:28;;;;;;;4.30;1.60;;;;;;;;;;4984950;28;20953;-72
2023/12/25 12:40:54;;;;;;;3.30;1.40;;;;;;;;;;4969493;28;21494;-71
2023/12/25 12:43:20;;;;;;;1.80;1.03;;;;;;;;;;4978489;28;20957;-72
2023/12/25 12:45:47;;;;;;;2.17;1.30;;;;;;;;;;4992527;28;20543;-70
2023/12/25 12:48:13;;;;;;;3.63;1.40;;;;;;;;;;4976860;28;20488;-71
2023/12/25 12:50:39;;;;;;;2.10;1.40;;;;;;;;;;4989918;28;20470;-69
2023/12/25 12:53:06;;;;;;;1.80;1.20;;;;;;;;;;4992670;28;20471;-71
2023/12/25 12:55:36;;;;;;;2.10;1.20;;;;;;;;;;4992291;28;20463;-69
2023/12/25 12:58:02;;;;;;;2.23;0.93;;;;;;;;;;4992919;28;20477;-70
2023/12/25 13:00:27;;;;;;;2.23;1.20;;;;;;;;;;4992282;28;20796;-70
2023/12/25 13:02:57;;;;;;;2.30;1.60;;;;;;;;;;4992499;28;20428;-69
2023/12/25 13:05:23;;;;;;;3.57;1.37;;;;;;;;;;4992315;28;20506;-70
2023/12/25 13:07:49;;;;;;;2.47;1.50;;;;;;;;;;4991986;28;20454;-70
2023/12/25 13:10:15;;;;;;;3.17;1.30;;;;;;;;;;4975931;28;20428;-69
2023/12/25 13:12:41;;;;;;;2.70;1.00;;;;;;;;;;4973005;28;20484;-69
2023/12/25 13:15:08;;;;;;;1.97;1.20;;;;;;;;;;4973021;28;20448;-70
2023/12/25 13:17:33;;;;;;;2.00;1.10;;;;;;;;;;4973330;28;20427;-69
2023/12/25 13:20:00;;;;;;;2.43;1.50;;;;;;;;;;4975615;28;20423;-69